Time;durP1;ratioP1;P1;durP2;ratioP2;P2;SDS_P1;SDS_P2;PMS_P1;PMS_P2;Temp;Humidity;BMP_temperature;BMP_pressure;BME280_temperature;BME280_humidity;BME280_pressure;Samples;Min_cycle;Max_cycle;Signal;HPM_P1;HPM_P2
2022/04/26 03:37:17;;;;;;;3.05;1.50;;;14.00;99.90;;;;;;5015092;28;20408;-54
2022/04/26 03:39:43;;;;;;;5.70;1.52;;;14.10;99.90;;;;;;5019066;28;20038;-55
2022/04/26 03:42:09;;;;;;;5.25;1.50;;;14.10;99.90;;;;;;5016995;28;20540;-56
2022/04/26 03:44:35;;;;;;;3.03;1.75;;;14.10;99.90;;;;;;5020565;28;20033;-57
2022/04/26 03:47:00;;;;;;;2.88;1.20;;;14.10;99.90;;;;;;5022811;28;20038;-53
2022/04/26 03:49:27;;;;;;;5.88;1.55;;;14.00;99.90;;;;;;5014757;28;20073;-56
2022/04/26 03:51:53;;;;;;;4.35;1.83;;;14.10;99.90;;;;;;5014153;28;20404;-53
2022/04/26 03:54:23;;;;;;;3.40;1.30;;;14.10;99.90;;;;;;5019856;28;20041;-61
2022/04/26 03:56:49;;;;;;;1.65;1.08;;;14.10;99.90;;;;;;5019289;28;20149;-53
2022/04/26 03:59:16;;;;;;;4.50;1.48;;;14.10;99.90;;;;;;5017362;28;20038;-59
2022/04/26 04:01:42;;;;;;;2.60;1.85;;;14.00;99.90;;;;;;5031539;28;20088;-54
2022/04/26 04:04:08;;;;;;;2.20;1.40;;;14.00;99.90;;;;;;5032608;28;20048;-56
2022/04/26 04:06:33;;;;;;;6.13;1.80;;;14.00;99.90;;;;;;5014039;28;20049;-51
2022/04/26 04:08:59;;;;;;;4.68;1.52;;;14.00;99.90;;;;;;5032205;28;20045;-57
2022/04/26 04:11:25;;;;;;;11.45;2.42;;;14.00;99.90;;;;;;5028570;28;20040;-58
2022/04/26 04:13:51;;;;;;;4.13;2.42;;;14.00;99.90;;;;;;5032194;28;20389;-52
2022/04/26 04:16:17;;;;;;;6.75;2.05;;;14.00;99.90;;;;;;5032614;28;20037;-54
2022/04/26 04:21:27;;;;;;;2.80;1.45;;;14.00;99.90;;;;;;5032382;28;20500;-61
2022/04/26 04:23:53;;;;;;;8.10;1.80;;;14.10;99.90;;;;;;5030571;28;20025;-57
2022/04/26 04:26:19;;;;;;;5.03;1.73;;;14.00;99.90;;;;;;5032406;28;20037;-59
2022/04/26 04:28:45;;;;;;;6.93;1.67;;;14.10;99.90;;;;;;5033629;28;20041;-53
2022/04/26 04:31:10;;;;;;;12.95;6.18;;;14.10;99.90;;;;;;5036415;28;20041;-54
2022/04/26 04:33:37;;;;;;;10.23;2.70;;;14.20;99.90;;;;;;5029944;28;20409;-54
2022/04/26 04:36:03;;;;;;;5.05;3.53;;;14.20;99.90;;;;;;5034158;28;20036;-56
2022/04/26 04:38:29;;;;;;;5.97;3.60;;;14.20;99.90;;;;;;5031788;28;20172;-54
2022/04/26 04:40:55;;;;;;;12.20;3.80;;;14.30;99.90;;;;;;5035925;28;20124;-55
2022/04/26 04:43:21;;;;;;;6.15;3.70;;;14.30;99.90;;;;;;5034627;28;20025;-57
2022/04/26 04:45:47;;;;;;;3.38;2.20;;;14.30;99.90;;;;;;5035177;28;20088;-53
2022/04/26 04:48:13;;;;;;;5.85;3.08;;;14.30;99.90;;;;;;5036098;28;20042;-55
2022/04/26 04:50:40;;;;;;;4.05;2.70;;;14.40;99.90;;;;;;5034980;28;20036;-60
2022/04/26 04:53:06;;;;;;;6.72;4.05;;;14.50;99.90;;;;;;5035580;28;20112;-55
2022/04/26 04:55:32;;;;;;;4.82;2.60;;;14.50;99.90;;;;;;5035025;28;20553;-57
2022/04/26 04:57:58;;;;;;;3.08;1.80;;;14.50;99.90;;;;;;5036366;28;20037;-58
2022/04/26 05:00:24;;;;;;;5.13;2.08;;;14.50;99.90;;;;;;5035270;28;20130;-57
2022/04/26 05:02:49;;;;;;;4.63;1.45;;;14.60;99.90;;;;;;5036206;28;20103;-57
2022/04/26 05:05:15;;;;;;;2.70;1.30;;;14.70;99.90;;;;;;5033101;28;20041;-58
2022/04/26 05:07:42;;;;;;;2.03;1.20;;;14.60;99.90;;;;;;5035475;28;20037;-55
2022/04/26 05:10:08;;;;;;;6.20;2.13;;;14.60;99.90;;;;;;5034505;28;20041;-54
2022/04/26 05:12:34;;;;;;;3.28;1.50;;;14.60;99.90;;;;;;5035041;28;20079;-56
2022/04/26 05:15:00;;;;;;;3.78;1.67;;;14.50;99.90;;;;;;5035368;28;20039;-60
2022/04/26 05:17:29;;;;;;;3.35;2.50;;;14.60;99.90;;;;;;5033695;28;20040;-57
2022/04/26 05:19:55;;;;;;;1.75;1.08;;;14.70;99.90;;;;;;5035031;28;20082;-54
2022/04/26 05:22:22;;;;;;;3.42;1.08;;;14.80;99.90;;;;;;5034976;28;20415;-53
2022/04/26 05:24:54;;;;;;;3.88;1.42;;;14.90;99.90;;;;;;5035047;28;20037;-55
2022/04/26 05:27:23;;;;;;;;;;;14.90;99.90;;;;;;5050556;28;20065;-58
2022/04/26 05:29:50;;;;;;;2.55;1.02;;;14.90;99.90;;;;;;5052630;28;19917;-54
2022/04/26 05:32:20;;;;;;;4.25;1.90;;;14.90;99.90;;;;;;5052451;28;20151;-59
2022/04/26 05:34:46;;;;;;;4.97;1.60;;;15.00;99.90;;;;;;5036048;28;20037;-57
2022/04/26 05:37:11;;;;;;;2.55;1.60;;;15.10;99.90;;;;;;5043671;28;20539;-62
2022/04/26 05:39:37;;;;;;;2.45;1.55;;;15.10;99.90;;;;;;5050860;28;20044;-61
2022/04/26 05:42:03;;;;;;;2.45;1.40;;;15.10;99.90;;;;;;5019245;28;20500;-59
2022/04/26 05:44:29;;;;;;;3.80;1.75;;;15.20;99.90;;;;;;5051404;28;20041;-59
2022/04/26 05:46:55;;;;;;;3.38;1.65;;;15.30;99.90;;;;;;5052385;28;20037;-55
2022/04/26 05:49:20;;;;;;;3.30;1.65;;;15.40;99.90;;;;;;5035965;28;20060;-57
2022/04/26 05:51:46;;;;;;;5.22;2.05;;;15.30;99.90;;;;;;5052326;28;20044;-58
2022/04/26 05:54:12;;;;;;;5.32;1.88;;;15.30;99.90;;;;;;5052207;28;20127;-53
2022/04/26 05:56:37;;;;;;;2.42;1.77;;;15.30;99.90;;;;;;5051838;28;20052;-52
2022/04/26 05:59:05;;;;;;;4.68;2.13;;;15.40;99.90;;;;;;5052332;28;20037;-55
2022/04/26 06:01:31;;;;;;;2.90;1.60;;;15.50;99.90;;;;;;5031747;28;20041;-54
2022/04/26 06:03:57;;;;;;;4.30;2.00;;;15.50;99.90;;;;;;5034498;28;20057;-53
2022/04/26 06:06:23;;;;;;;4.18;1.85;;;15.70;99.90;;;;;;5034134;28;20100;-57
2022/04/26 06:08:49;;;;;;;3.33;1.98;;;15.70;99.90;;;;;;5033636;28;20045;-55
2022/04/26 06:11:15;;;;;;;3.22;2.05;;;15.70;99.90;;;;;;5033087;28;20022;-52
2022/04/26 06:13:41;;;;;;;4.90;2.10;;;15.80;99.90;;;;;;5048555;28;20037;-55
2022/04/26 06:16:06;;;;;;;3.95;2.17;;;15.70;99.90;;;;;;5034096;28;20410;-61
2022/04/26 06:18:32;;;;;;;5.45;2.30;;;15.90;99.90;;;;;;5034360;28;20025;-60
2022/04/26 06:20:58;;;;;;;3.00;1.95;;;15.90;99.90;;;;;;5034551;28;20029;-51
2022/04/26 06:23:24;;;;;;;3.67;1.85;;;15.90;99.90;;;;;;5034862;28;20040;-44
2022/04/26 06:25:50;;;;;;;4.45;2.17;;;16.00;99.90;;;;;;5015026;28;20496;-56
2022/04/26 06:28:16;;;;;;;5.05;2.00;;;16.10;99.90;;;;;;5034019;28;20530;-51
2022/04/26 06:30:42;;;;;;;9.40;3.40;;;16.00;99.90;;;;;;5033213;28;20121;-47
2022/04/26 06:33:08;;;;;;;4.45;2.80;;;16.10;99.90;;;;;;5048170;28;20140;-50
2022/04/26 06:35:34;;;;;;;4.40;2.45;;;16.10;99.90;;;;;;5029685;28;20072;-49
2022/04/26 06:38:00;;;;;;;4.25;2.22;;;16.30;99.90;;;;;;5031780;28;20374;-50
2022/04/26 06:40:26;;;;;;;2.92;1.75;;;16.40;99.90;;;;;;5027858;28;20038;-50
2022/04/26 06:42:52;;;;;;;3.78;2.13;;;16.30;99.90;;;;;;5033457;28;20030;-50
2022/04/26 06:45:18;;;;;;;3.72;2.13;;;16.40;99.90;;;;;;5014191;28;20051;-50
2022/04/26 06:47:44;;;;;;;9.10;2.53;;;16.70;99.90;;;;;;5027124;28;20042;-51
2022/04/26 06:50:10;;;;;;;7.15;2.80;;;16.70;99.90;;;;;;5029176;28;20053;-50
2022/04/26 06:52:36;;;;;;;3.80;2.05;;;16.90;99.90;;;;;;5029946;28;20041;-52
2022/04/26 06:55:02;;;;;;;2.95;2.10;;;16.80;99.90;;;;;;5022823;28;20137;-50
2022/04/26 06:57:28;;;;;;;5.20;2.20;;;16.90;99.90;;;;;;5031142;28;20103;-50
2022/04/26 06:59:54;;;;;;;4.53;2.50;;;16.90;99.90;;;;;;5029482;28;20432;-50
2022/04/26 07:02:20;;;;;;;9.75;2.75;;;17.00;99.90;;;;;;5032729;28;20076;-50
2022/04/26 07:04:46;;;;;;;4.97;2.20;;;17.10;99.90;;;;;;5028297;28;20120;-51
2022/04/26 07:07:12;;;;;;;4.22;2.25;;;17.00;99.90;;;;;;5033720;28;20433;-50
2022/04/26 07:09:38;;;;;;;4.13;2.22;;;17.20;99.90;;;;;;5032180;28;20041;-51
2022/04/26 07:12:07;;;;;;;3.13;2.20;;;17.20;99.90;;;;;;5031150;28;20021;-50
2022/04/26 07:14:33;;;;;;;3.60;2.05;;;17.30;99.90;;;;;;5014737;28;20049;-50
2022/04/26 07:17:01;;;;;;;6.63;2.30;;;17.30;99.90;;;;;;5032780;28;20033;-50
2022/04/26 07:19:27;;;;;;;5.95;2.78;;;17.50;99.90;;;;;;5012528;28;20103;-50
2022/04/26 07:21:53;;;;;;;2.35;1.80;;;17.50;99.90;;;;;;5025627;28;20476;-50
2022/04/26 07:24:18;;;;;;;3.65;1.63;;;17.50;99.90;;;;;;5031316;28;20405;-50
2022/04/26 07:26:44;;;;;;;3.45;1.73;;;17.60;99.90;;;;;;5014408;28;20037;-50
2022/04/26 07:29:10;;;;;;;6.43;3.05;;;17.70;99.90;;;;;;5032505;28;20396;-50
2022/04/26 07:31:37;;;;;;;3.63;1.98;;;17.80;99.90;;;;;;5030704;28;20503;-50
2022/04/26 07:34:20;;;;;;;3.58;1.80;;;18.00;99.90;;;;;;5032711;28;20029;-50
2022/04/26 07:36:47;;;;;;;5.68;2.60;;;;;;;;;;5032758;28;20033;-46
2022/04/26 07:39:14;;;;;;;6.25;2.13;;;18.40;99.90;;;;;;5032704;28;20088;-51
2022/04/26 07:41:40;;;;;;;3.63;2.20;;;18.40;99.90;;;;;;5031482;28;20190;-52
2022/04/26 07:44:06;;;;;;;3.50;1.90;;;18.50;99.90;;;;;;5033009;28;20116;-51
2022/04/26 07:46:32;;;;;;;3.25;1.73;;;18.70;99.90;;;;;;5030565;28;20516;-51
2022/04/26 07:48:58;;;;;;;4.68;2.28;;;18.70;99.90;;;;;;5031733;28;20049;-51
2022/04/26 07:51:24;;;;;;;3.78;2.00;;;18.80;99.90;;;;;;5032404;28;20134;-51
2022/04/26 07:53:49;;;;;;;3.15;2.03;;;18.90;99.90;;;;;;5030474;28;20504;-51
2022/04/26 07:56:16;;;;;;;3.33;1.80;;;;;;;;;;5030588;28;20044;-51
2022/04/26 07:58:41;;;;;;;4.55;2.13;;;19.10;99.90;;;;;;5032605;28;20496;-51
2022/04/26 08:01:07;;;;;;;1.60;1.30;;;19.20;99.90;;;;;;5014795;28;20124;-51
2022/04/26 08:03:35;;;;;;;6.43;2.13;;;19.30;99.90;;;;;;4993175;28;20044;-51
2022/04/26 08:06:01;;;;;;;6.25;1.80;;;;;;;;;;5033431;28;20048;-51
2022/04/26 08:08:27;;;;;;;4.63;1.98;;;19.80;99.90;;;;;;5032222;28;20048;-51
2022/04/26 08:10:52;;;;;;;4.18;2.08;;;20.10;99.90;;;;;;5032367;28;20092;-51
2022/04/26 08:13:18;;;;;;;4.13;1.65;;;20.20;99.90;;;;;;5012928;28;20092;-51
2022/04/26 08:15:44;;;;;;;2.85;1.83;;;20.30;99.90;;;;;;5032155;28;20033;-51
2022/04/26 08:18:11;;;;;;;3.45;2.03;;;20.30;99.90;;;;;;5032171;28;20029;-52
2022/04/26 08:20:37;;;;;;;4.88;2.17;;;20.40;99.90;;;;;;5032366;28;20057;-52
2022/04/26 08:23:06;;;;;;;3.38;2.00;;;20.50;99.90;;;;;;5028983;28;20033;-51
2022/04/26 08:28:19;;;;;;;2.72;1.80;;;;;;;;;;5030275;28;20115;-51
2022/04/26 08:30:45;;;;;;;2.92;1.85;;;21.00;99.90;;;;;;5032119;28;20030;-51
2022/04/26 08:33:10;;;;;;;3.28;1.98;;;21.40;99.90;;;;;;5030970;28;20116;-51
2022/04/26 08:35:36;;;;;;;10.45;9.13;;;;;;;;;;5032774;28;20033;-51
2022/04/26 08:38:03;;;;;;;3.20;1.90;;;;;;;;;;5031785;28;20481;-52
2022/04/26 08:40:29;;;;;;;3.20;1.80;;;;;;;;;;5032493;28;20120;-51
2022/04/26 08:42:55;;;;;;;3.90;2.05;;;;;;;;;;5032440;28;20124;-52
2022/04/26 08:45:21;;;;;;;5.13;2.10;;;21.90;99.90;;;;;;5032020;28;20037;-52
2022/04/26 08:53:22;;;;;;;2.13;1.75;;;23.20;99.90;;;;;;5031723;28;20052;-51
2022/04/26 08:55:50;;;;;;;2.00;1.40;;;23.00;99.90;;;;;;5031881;28;20045;-52
2022/04/26 08:58:18;;;;;;;2.95;1.50;;;23.20;99.90;;;;;;5063121;28;20370;-51
2022/04/26 09:01:06;;;;;;;3.33;2.10;;;;;;;;;;5028387;28;20476;-52
2022/04/26 09:03:33;;;;;;;5.97;1.73;;;23.80;99.90;;;;;;5024760;28;20038;-51
2022/04/26 09:06:04;;;;;;;6.20;1.85;;;23.60;99.90;;;;;;5014438;28;20048;-51
2022/04/26 09:08:30;;;;;;;3.50;1.70;;;23.60;99.90;;;;;;5029801;28;20041;-51
2022/04/26 09:10:56;;;;;;;3.63;1.95;;;23.90;99.90;;;;;;5039195;28;20104;-51
2022/04/26 09:13:23;;;;;;;3.28;2.15;;;;;;;;;;5031487;28;20432;-51
2022/04/26 09:15:56;;;;;;;3.90;1.50;;;;;;;;;;5035369;28;20044;-51
2022/04/26 09:18:29;;;;;;;4.15;1.60;;;24.40;99.90;;;;;;5035083;28;20029;-51
2022/04/26 09:20:57;;;;;;;9.23;1.80;;;;;;;;;;5034582;28;20064;-51
2022/04/26 09:23:24;;;;;;;5.13;1.15;;;;;;;;;;5034346;28;20590;-51
2022/04/26 09:26:10;;;;;;;1.65;1.05;;;;;;;;;;5033803;28;20048;-51
2022/04/26 09:28:37;;;;;;;1.85;1.10;;;;;;;;;;5035167;28;20075;-51
2022/04/26 09:31:17;;;;;;;3.42;1.02;;;;;;;;;;5066489;28;20052;-51
2022/04/26 09:33:47;;;;;;;2.42;1.10;;;;;;;;;;5034036;28;20030;-51
2022/04/26 09:36:13;;;;;;;2.15;1.30;;;;;;;;;;5059828;28;20076;-51
2022/04/26 09:38:41;;;;;;;3.72;0.90;;;;;;;;;;5034683;28;20025;-51
2022/04/26 09:41:09;;;;;;;1.27;1.00;;;;;;;;;;5034941;28;20575;-51
2022/04/26 09:43:36;;;;;;;4.95;1.30;;;;;;;;;;5035217;28;20108;-51
2022/04/26 09:46:04;;;;;;;2.88;1.10;;;;;;;;;;5034452;28;20037;-50
2022/04/26 09:48:35;;;;;;;3.13;1.23;;;;;;;;;;5045647;28;20057;-50
2022/04/26 09:51:03;;;;;;;2.60;1.00;;;25.70;95.00;;;;;;5034768;28;20029;-50
2022/04/26 09:53:32;;;;;;;3.38;0.90;;;;;;;;;;5033041;28;20455;-50
2022/04/26 09:55:59;;;;;;;1.65;1.50;;;;;;;;;;5032322;28;20095;-45
2022/04/26 09:58:27;;;;;;;1.98;1.30;;;;;;;;;;5030696;28;20125;-50
2022/04/26 10:00:54;;;;;;;3.55;1.40;;;;;;;;;;5026770;28;20033;-50
2022/04/26 10:03:21;;;;;;;4.85;2.95;;;;;;;;;;5031075;28;20065;-52
2022/04/26 10:05:49;;;;;;;2.80;1.35;;;;;;;;;;5014373;28;20721;-50
2022/04/26 10:08:17;;;;;;;2.53;1.40;;;;;;;;;;5028640;28;20093;-51
2022/04/26 10:10:47;;;;;;;1.27;1.08;;;26.50;93.30;;;;;;5031129;28;20094;-51
2022/04/26 10:13:32;;;;;;;9.38;1.52;;;;;;;;;;5013791;28;20041;-50
2022/04/26 10:16:02;;;;;;;2.03;1.10;;;;;;;;;;5030559;28;20045;-50
2022/04/26 10:18:29;;;;;;;4.82;1.00;;;;;;;;;;5030103;28;20460;-50
2022/04/26 10:20:56;;;;;;;1.63;1.00;;;;;;;;;;5031028;28;20477;-50
2022/04/26 10:23:22;;;;;;;2.05;1.00;;;;;;;;;;5030478;28;20021;-50
2022/04/26 10:26:24;;;;;;;2.67;1.15;;;26.50;93.60;;;;;;5032572;28;20030;-50
2022/04/26 10:29:01;;;;;;;1.55;0.90;;;26.70;93.10;;;;;;4965023;28;20043;-50
2022/04/26 10:31:49;;;;;;;3.58;1.00;;;26.80;92.70;;;;;;4971318;28;20101;-50
2022/04/26 10:34:23;;;;;;;1.75;1.20;;;;;;;;;;4968829;28;20042;-50
2022/04/26 10:36:54;;;;;;;6.07;1.58;;;26.00;99.90;;;;;;4958713;28;20042;-50
2022/04/26 10:39:24;;;;;;;3.55;1.70;;;26.10;99.90;;;;;;4970974;28;20116;-50
2022/04/26 10:41:51;;;;;;;4.95;1.70;;;25.90;99.90;;;;;;4951627;29;20043;-50
2022/04/26 10:44:20;;;;;;;1.27;0.90;;;25.80;99.90;;;;;;4967727;28;20085;-50
2022/04/26 10:46:50;;;;;;;1.40;0.90;;;26.00;99.90;;;;;;4967486;28;20030;-50
2022/04/26 10:49:24;;;;;;;2.00;1.00;;;26.30;99.90;;;;;;4972036;28;20056;-51
2022/04/26 10:51:57;;;;;;;1.45;0.98;;;25.60;99.90;;;;;;4972383;28;20078;-49
2022/04/26 10:54:48;;;;;;;2.53;0.90;;;26.00;99.90;;;;;;4969071;28;20086;-50
2022/04/26 10:57:28;;;;;;;1.42;0.90;;;26.70;99.90;;;;;;4961363;28;20047;-51
2022/04/26 11:00:03;;;;;;;1.63;1.00;;;26.80;91.50;;;;;;4956836;28;20046;-50
2022/04/26 11:02:40;;;;;;;3.55;1.23;;;27.20;91.20;;;;;;4988184;28;20057;-50
2022/04/26 11:05:09;;;;;;;1.02;0.82;;;;;;;;;;5034084;28;20147;-50
2022/04/26 11:07:36;;;;;;;2.60;0.90;;;;;;;;;;5033464;28;20468;-51
2022/04/26 11:10:04;;;;;;;1.73;0.90;;;28.00;90.50;;;;;;5032393;28;20041;-50
2022/04/26 11:12:33;;;;;;;1.45;0.90;;;28.10;90.80;;;;;;5033494;28;20045;-50
2022/04/26 11:15:19;;;;;;;2.33;0.63;;;28.20;89.50;;;;;;5014928;28;20049;-50
2022/04/26 11:17:46;;;;;;;3.15;0.80;;;28.20;90.10;;;;;;5033052;28;20041;-50
2022/04/26 11:20:17;;;;;;;7.43;1.75;;;27.90;90.40;;;;;;5033272;28;20033;-50
2022/04/26 11:27:59;;;;;;;2.33;1.00;;;27.50;91.00;;;;;;5032594;28;20037;-46
2022/04/26 11:28:31;;;;;;;1.13;0.90;;;28.00;90.20;;;;;;5030657;28;20114;-49
2022/04/26 11:30:57;;;;;;;2.55;1.00;;;27.60;88.20;;;;;;5032997;28;20048;-46
2022/04/26 11:33:25;;;;;;;4.18;1.10;;;27.60;90.40;;;;;;5014785;28;20469;-48
2022/04/26 11:35:56;;;;;;;5.53;1.38;;;28.00;89.60;;;;;;5032901;28;20385;-50
2022/04/26 11:38:23;;;;;;;0.80;0.70;;;28.30;88.30;;;;;;5032852;28;20040;-50
2022/04/26 11:40:49;;;;;;;3.47;0.82;;;28.50;85.10;;;;;;5032021;28;20528;-48
2022/04/26 11:43:19;;;;;;;2.38;1.40;;;28.40;85.70;;;;;;5054917;28;20037;-48
2022/04/26 11:45:47;;;;;;;1.10;1.00;;;28.00;88.40;;;;;;5013783;28;20117;-51
2022/04/26 11:48:15;;;;;;;3.38;1.02;;;27.80;88.20;;;;;;5032611;28;20049;-47
2022/04/26 11:50:42;;;;;;;4.65;1.10;;;28.00;86.20;;;;;;5014080;28;20446;-49
2022/04/26 11:53:11;;;;;;;2.28;1.08;;;28.00;87.20;;;;;;5032047;28;20041;-48
2022/04/26 11:55:38;;;;;;;3.30;0.98;;;27.80;86.20;;;;;;5032804;28;20029;-51
2022/04/26 11:58:06;;;;;;;5.28;1.13;;;27.80;85.50;;;;;;5032670;28;20096;-51
2022/04/26 12:00:33;;;;;;;1.88;1.17;;;27.80;85.80;;;;;;5033430;28;20096;-50
2022/04/26 12:03:00;;;;;;;6.13;1.08;;;27.50;85.90;;;;;;5032012;28;20095;-47
2022/04/26 12:05:26;;;;;;;1.10;0.90;;;28.00;86.00;;;;;;5031977;28;20026;-50
2022/04/26 12:07:52;;;;;;;2.17;1.02;;;28.20;85.50;;;;;;5031992;28;20033;-56
2022/04/26 12:10:35;;;;;;;4.30;0.77;;;28.80;88.00;;;;;;5032760;28;20094;-53
2022/04/26 12:13:05;;;;;;;4.32;1.05;;;28.70;86.40;;;;;;5013675;28;20381;-52
2022/04/26 12:15:38;;;;;;;4.28;1.00;;;28.10;85.20;;;;;;5029770;28;20045;-51
2022/04/26 12:18:09;;;;;;;2.60;0.98;;;28.30;85.20;;;;;;5032423;28;20033;-47
2022/04/26 12:20:56;;;;;;;3.42;1.10;;;27.30;86.60;;;;;;5032145;28;20040;-53
2022/04/26 12:23:23;;;;;;;9.80;1.58;;;27.30;87.70;;;;;;5032488;28;20079;-48
2022/04/26 12:26:03;;;;;;;1.35;0.90;;;27.70;89.10;;;;;;5030955;28;20052;-54
2022/04/26 12:28:29;;;;;;;1.27;1.00;;;27.60;85.40;;;;;;5032290;28;20042;-54
2022/04/26 12:30:56;;;;;;;1.95;1.00;;;28.30;87.00;;;;;;5032348;28;20049;-51
2022/04/26 12:33:31;;;;;;;3.10;1.25;;;28.70;84.90;;;;;;5032194;28;20025;-56
2022/04/26 12:36:04;;;;;;;2.00;0.70;;;28.90;86.10;;;;;;5032042;28;20041;-53
2022/04/26 12:38:31;;;;;;;2.35;0.98;;;29.40;84.00;;;;;;4997342;28;20044;-53
2022/04/26 12:41:04;;;;;;;4.22;0.80;;;29.00;83.60;;;;;;5028810;28;20045;-56
2022/04/26 12:43:31;;;;;;;2.78;0.82;;;29.20;82.50;;;;;;5032575;28;20033;-50
2022/04/26 12:46:02;;;;;;;2.17;1.20;;;29.50;82.20;;;;;;5031170;28;20037;-53
2022/04/26 12:51:25;;;;;;;2.45;0.90;;;29.80;84.30;;;;;;5035459;28;20528;-55
2022/04/26 12:53:52;;;;;;;3.53;0.95;;;29.60;81.70;;;;;;5035908;28;20065;-55
2022/04/26 12:56:19;;;;;;;1.20;0.90;;;29.70;82.80;;;;;;5035758;28;20033;-51
2022/04/26 12:58:48;;;;;;;12.32;1.58;;;29.40;81.90;;;;;;5017226;28;20041;-58
2022/04/26 13:01:15;;;;;;;1.52;1.08;;;28.60;82.10;;;;;;5035326;28;20386;-51
2022/04/26 13:03:42;;;;;;;7.03;1.63;;;28.80;84.70;;;;;;5035917;28;20112;-52
2022/04/26 13:06:12;;;;;;;3.10;1.10;;;28.90;84.20;;;;;;5035357;28;20029;-58
2022/04/26 13:08:40;;;;;;;1.80;1.23;;;28.90;83.30;;;;;;5031844;28;20053;-54
2022/04/26 13:11:07;;;;;;;2.70;1.15;;;28.80;81.90;;;;;;5035525;28;20384;-49
2022/04/26 13:13:34;;;;;;;3.55;1.17;;;29.00;82.50;;;;;;5035500;28;20120;-53
2022/04/26 13:16:01;;;;;;;24.08;19.52;;;29.00;82.90;;;;;;5066567;28;20033;-53
2022/04/26 13:18:28;;;;;;;5.53;3.08;;;29.10;82.80;;;;;;5035430;28;22026;-54
2022/04/26 13:20:58;;;;;;;1.73;1.10;;;28.50;81.20;;;;;;5034566;28;20123;-52
2022/04/26 13:23:25;;;;;;;4.68;1.20;;;27.90;81.30;;;;;;5034521;28;20491;-54
2022/04/26 13:25:52;;;;;;;2.60;0.90;;;27.50;81.30;;;;;;5034444;28;20030;-54
2022/04/26 13:28:19;;;;;;;3.75;0.88;;;27.80;81.70;;;;;;5032538;28;20038;-55
2022/04/26 13:30:45;;;;;;;2.70;1.08;;;27.80;82.70;;;;;;5034652;28;20022;-50
2022/04/26 13:33:11;;;;;;;2.05;0.90;;;;;;;;;;5034163;28;20033;-52
2022/04/26 13:35:38;;;;;;;2.47;0.90;;;;;;;;;;5034328;28;20025;-50
2022/04/26 13:38:11;;;;;;;4.80;1.10;;;;;;;;;;5034361;28;20044;-53
2022/04/26 13:40:37;;;;;;;7.68;1.60;;;;;;;;;;5031729;28;20828;-54
2022/04/26 13:43:07;;;;;;;3.75;1.40;;;25.60;99.90;;;;;;5034617;28;20025;-56
2022/04/26 13:45:34;;;;;;;3.13;1.15;;;25.20;85.00;;;;;;5049516;28;20521;-55
2022/04/26 13:48:03;;;;;;;1.50;0.82;;;25.20;84.00;;;;;;5034396;28;20036;-51
2022/04/26 13:50:29;;;;;;;2.72;1.10;;;25.30;84.80;;;;;;5032863;28;20041;-52
2022/04/26 13:52:56;;;;;;;1.70;0.85;;;25.60;84.10;;;;;;5034746;28;20033;-52
2022/04/26 13:55:26;;;;;;;3.03;1.00;;;25.90;86.60;;;;;;5034653;28;20091;-55
2022/04/26 13:57:54;;;;;;;1.10;0.80;;;26.10;84.80;;;;;;5034538;28;20417;-53
2022/04/26 14:00:21;;;;;;;4.43;1.30;;;26.70;83.60;;;;;;5033863;28;20060;-53
2022/04/26 14:02:48;;;;;;;3.22;0.95;;;27.20;83.90;;;;;;5033391;28;20092;-52
2022/04/26 14:05:18;;;;;;;3.55;1.33;;;27.20;83.50;;;;;;5018242;28;20095;-52
2022/04/26 14:07:47;;;;;;;3.70;0.70;;;27.50;83.50;;;;;;5015847;28;20033;-51
2022/04/26 14:10:14;;;;;;;3.08;1.00;;;27.70;83.30;;;;;;5053421;28;20075;-53
2022/04/26 14:12:40;;;;;;;3.15;0.93;;;27.90;82.90;;;;;;5053069;28;20028;-49
2022/04/26 14:23:20;;;;;;;7.22;1.52;;;27.10;81.70;;;;;;5053719;28;20040;-54
2022/04/26 14:25:46;;;;;;;5.75;1.40;;;27.20;86.30;;;;;;5052883;28;20112;-53
2022/04/26 14:28:11;;;;;;;1.88;1.05;;;27.00;85.60;;;;;;5050474;28;20033;-53
2022/04/26 14:30:37;;;;;;;2.50;1.00;;;26.90;85.40;;;;;;5050941;28;20044;-51
2022/04/26 14:33:03;;;;;;;2.13;0.90;;;27.10;86.50;;;;;;5050138;28;20120;-53
2022/04/26 14:35:31;;;;;;;2.28;0.70;;;27.20;85.10;;;;;;5046814;28;20049;-54
2022/04/26 14:37:58;;;;;;;4.20;1.20;;;27.30;85.90;;;;;;5031798;28;20041;-56
2022/04/26 14:40:24;;;;;;;3.65;0.85;;;27.50;81.90;;;;;;5053300;28;20036;-55
2022/04/26 14:42:50;;;;;;;3.00;0.93;;;27.10;89.40;;;;;;5052088;28;20056;-52
2022/04/26 14:45:16;;;;;;;1.67;0.90;;;27.00;90.10;;;;;;5039555;28;20041;-52
2022/04/26 14:47:42;;;;;;;2.33;1.05;;;27.30;90.40;;;;;;5049934;28;20041;-51
2022/04/26 14:50:09;;;;;;;4.60;1.20;;;27.10;88.70;;;;;;5036420;28;20118;-51
2022/04/26 14:52:36;;;;;;;5.85;2.13;;;26.40;87.70;;;;;;5052901;28;20114;-50
2022/04/26 14:55:07;;;;;;;3.53;0.95;;;26.30;88.60;;;;;;5051955;28;20029;-48
2022/04/26 14:57:33;;;;;;;4.10;1.20;;;26.00;82.30;;;;;;5017262;28;20037;-52
2022/04/26 14:59:59;;;;;;;12.50;1.52;;;25.60;83.10;;;;;;5052589;28;20082;-53
2022/04/26 15:02:25;;;;;;;3.30;1.10;;;25.50;84.80;;;;;;5053047;28;20064;-54
2022/04/26 15:04:51;;;;;;;1.55;0.90;;;25.40;83.80;;;;;;5052953;28;20029;-50
2022/04/26 15:07:17;;;;;;;2.45;1.08;;;25.10;83.80;;;;;;5053254;28;20122;-54
2022/04/26 15:09:43;;;;;;;6.07;1.40;;;25.30;85.30;;;;;;5048000;28;20125;-53
2022/04/26 15:17:48;;;;;;;3.17;1.08;;;25.90;85.00;;;;;;5053623;28;20043;-55
2022/04/26 15:20:15;;;;;;;3.78;0.95;;;25.90;83.20;;;;;;5051580;28;20066;-54
2022/04/26 15:22:41;;;;;;;2.25;1.00;;;26.10;84.50;;;;;;5033786;28;20040;-51
2022/04/26 15:25:09;;;;;;;2.08;1.02;;;25.80;82.10;;;;;;5053242;28;20029;-50
2022/04/26 15:27:38;;;;;;;6.68;1.60;;;25.60;82.80;;;;;;5052267;28;20453;-52
2022/04/26 15:30:06;;;;;;;2.30;1.30;;;25.60;84.70;;;;;;5039096;28;20072;-51
2022/04/26 15:32:33;;;;;;;1.52;0.82;;;25.90;84.10;;;;;;5003069;28;20029;-56
2022/04/26 15:34:59;;;;;;;6.15;1.35;;;26.20;83.00;;;;;;5030988;28;20048;-50
2022/04/26 15:37:25;;;;;;;3.75;1.25;;;26.30;83.30;;;;;;5034087;28;20366;-53
2022/04/26 15:39:54;;;;;;;5.28;1.20;;;25.90;82.20;;;;;;5052531;28;20029;-48
2022/04/26 15:42:24;;;;;;;2.83;1.00;;;25.90;84.00;;;;;;5053302;28;20025;-52
2022/04/26 15:44:50;;;;;;;1.30;0.95;;;25.90;83.60;;;;;;5017645;28;20532;-51
2022/04/26 15:47:16;;;;;;;1.80;0.70;;;25.70;82.90;;;;;;5052169;28;20384;-48
2022/04/26 15:49:42;;;;;;;4.07;1.42;;;25.60;81.90;;;;;;5052397;28;20128;-52
2022/04/26 15:52:08;;;;;;;2.10;1.00;;;25.50;82.10;;;;;;5053012;28;20108;-49
2022/04/26 15:54:37;;;;;;;3.08;1.17;;;25.20;81.40;;;;;;5033645;28;20489;-49
2022/04/26 15:57:03;;;;;;;2.58;1.15;;;25.20;82.30;;;;;;5053283;28;20025;-55
2022/04/26 15:59:29;;;;;;;3.83;1.83;;;25.10;81.90;;;;;;5052707;28;20028;-51
2022/04/26 16:01:55;;;;;;;1.15;0.88;;;25.10;83.20;;;;;;5016330;28;20400;-51
2022/04/26 16:04:22;;;;;;;6.57;1.42;;;25.00;82.10;;;;;;5033317;28;20100;-53
2022/04/26 16:06:48;;;;;;;1.33;0.88;;;24.90;82.40;;;;;;5050536;28;20444;-48
2022/04/26 16:20:30;;;;;;;8.52;1.45;;;24.50;83.10;;;;;;4982818;28;20397;-53
2022/04/26 16:23:06;;;;;;;4.00;1.48;;;24.40;84.70;;;;;;5009450;28;20109;-54
2022/04/26 16:25:32;;;;;;;2.40;1.75;;;24.50;84.70;;;;;;5012115;28;20038;-54
2022/04/26 16:28:00;;;;;;;6.80;1.33;;;24.40;84.10;;;;;;4997771;28;20532;-51
2022/04/26 16:30:29;;;;;;;2.03;1.13;;;;;;;;;;4969447;28;20057;-52
2022/04/26 16:32:56;;;;;;;4.20;1.63;;;;;;;;;;5014132;28;20038;-53
2022/04/26 16:35:22;;;;;;;6.85;1.58;;;;;;;;;;5013939;28;20045;-48
2022/04/26 16:37:48;;;;;;;5.07;1.75;;;24.40;90.80;;;;;;5013923;28;20030;-52
2022/04/26 16:40:13;;;;;;;7.97;2.10;;;24.40;91.70;;;;;;5014230;28;20037;-50
2022/04/26 16:42:40;;;;;;;7.50;1.60;;;24.30;91.80;;;;;;5012370;28;20385;-55
2022/04/26 16:45:08;;;;;;;9.57;2.13;;;24.30;94.70;;;;;;5012447;28;20041;-54
2022/04/26 16:47:34;;;;;;;5.30;1.60;;;24.10;96.80;;;;;;5012784;28;20056;-51
2022/04/26 16:49:59;;;;;;;6.70;1.88;;;24.00;85.00;;;;;;4995920;28;20046;-49
2022/04/26 16:52:25;;;;;;;6.65;2.70;;;23.90;85.30;;;;;;5041693;28;20473;-51
2022/04/26 16:54:51;;;;;;;5.35;2.65;;;23.90;85.40;;;;;;5046383;28;20033;-54
2022/04/26 16:57:18;;;;;;;15.10;8.63;;;23.60;93.00;;;;;;5034069;28;20037;-53
2022/04/26 16:59:44;;;;;;;6.47;4.20;;;23.10;85.30;;;;;;5054575;28;20056;-54
2022/04/26 17:02:10;;;;;;;11.07;2.90;;;23.50;86.00;;;;;;5054782;28;20139;-56
2022/04/26 17:04:36;;;;;;;10.68;3.00;;;23.30;86.30;;;;;;5035340;28;20408;-55
2022/04/26 17:07:01;;;;;;;7.18;3.20;;;23.20;86.80;;;;;;5054551;28;20079;-55
2022/04/26 17:09:28;;;;;;;17.80;3.75;;;23.10;87.30;;;;;;5018491;28;20048;-51
2022/04/26 17:11:54;;;;;;;15.45;3.35;;;23.10;87.90;;;;;;5054321;28;20036;-56
2022/04/26 17:14:20;;;;;;;7.20;2.67;;;23.00;87.70;;;;;;5055029;28;20086;-52
2022/04/26 17:16:48;;;;;;;15.02;3.28;;;23.00;88.10;;;;;;5054091;28;20071;-53
2022/04/26 17:19:15;;;;;;;5.88;3.17;;;22.90;88.40;;;;;;5053782;28;20358;-50
2022/04/26 17:21:42;;;;;;;7.85;3.72;;;22.90;87.90;;;;;;5053536;28;20029;-54